sensor_id;sensor_type;location;lat;lon;timestamp;temperature;humidity
24262;DHT22;12385;51.412;5.540;2022-10-22T00:01:35;13.90;99.90
24262;DHT22;12385;51.412;5.540;2022-10-22T00:04:01;13.90;99.90
24262;DHT22;12385;51.412;5.540;2022-10-22T00:06:27;13.90;99.90
24262;DHT22;12385;51.412;5.540;2022-10-22T00:08:52;13.90;99.90
24262;DHT22;12385;51.412;5.540;2022-10-22T00:11:19;13.90;99.90
24262;DHT22;12385;51.412;5.540;2022-10-22T00:13:45;13.90;99.90
24262;DHT22;12385;51.412;5.540;2022-10-22T00:16:11;13.90;99.90
24262;DHT22;12385;51.412;5.540;2022-10-22T00:18:36;13.90;99.90
24262;DHT22;12385;51.412;5.540;2022-10-22T00:21:02;13.80;99.90
24262;DHT22;12385;51.412;5.540;2022-10-22T00:23:28;13.80;99.90
24262;DHT22;12385;51.412;5.540;2022-10-22T00:25:54;13.80;99.90
24262;DHT22;12385;51.412;5.540;2022-10-22T00:28:20;13.80;99.90
24262;DHT22;12385;51.412;5.540;2022-10-22T00:30:45;13.80;99.90
24262;DHT22;12385;51.412;5.540;2022-10-22T00:33:11;13.80;99.90
24262;DHT22;12385;51.412;5.540;2022-10-22T00:35:39;13.80;99.90
24262;DHT22;12385;51.412;5.540;2022-10-22T00:38:04;13.80;99.90
24262;DHT22;12385;51.412;5.540;2022-10-22T00:40:30;13.80;99.90
24262;DHT22;12385;51.412;5.540;2022-10-22T00:43:04;13.80;99.90
24262;DHT22;12385;51.412;5.540;2022-10-22T00:45:29;13.80;99.90
24262;DHT22;12385;51.412;5.540;2022-10-22T00:48:03;13.80;99.90
24262;DHT22;12385;51.412;5.540;2022-10-22T00:50:51;13.80;99.90
24262;DHT22;12385;51.412;5.540;2022-10-22T00:53:25;13.80;99.90
24262;DHT22;12385;51.412;5.540;2022-10-22T00:55:53;13.70;99.90
24262;DHT22;12385;51.412;5.540;2022-10-22T00:58:25;13.80;99.90
24262;DHT22;12385;51.412;5.540;2022-10-22T01:00:51;13.80;99.90
24262;DHT22;12385;51.412;5.540;2022-10-22T01:03:17;13.80;99.90
24262;DHT22;12385;51.412;5.540;2022-10-22T01:05:53;13.80;99.90
24262;DHT22;12385;51.412;5.540;2022-10-22T01:10:55;13.80;99.90
24262;DHT22;12385;51.412;5.540;2022-10-22T01:13:32;13.80;99.90
24262;DHT22;12385;51.412;5.540;2022-10-22T01:18:56;13.80;99.90
24262;DHT22;12385;51.412;5.540;2022-10-22T01:21:46;13.80;99.90
24262;DHT22;12385;51.412;5.540;2022-10-22T01:24:37;13.70;99.90
24262;DHT22;12385;51.412;5.540;2022-10-22T01:27:46;13.70;99.90
24262;DHT22;12385;51.412;5.540;2022-10-22T01:30:17;13.80;99.90
24262;DHT22;12385;51.412;5.540;2022-10-22T01:32:52;13.70;99.90
24262;DHT22;12385;51.412;5.540;2022-10-22T01:35:23;13.70;99.90
24262;DHT22;12385;51.412;5.540;2022-10-22T01:37:55;13.70;99.90
24262;DHT22;12385;51.412;5.540;2022-10-22T01:40:22;13.70;99.90
24262;DHT22;12385;51.412;5.540;2022-10-22T01:43:05;13.70;99.90
24262;DHT22;12385;51.412;5.540;2022-10-22T01:45:34;13.70;99.90
24262;DHT22;12385;51.412;5.540;2022-10-22T01:56:15;13.70;99.90
24262;DHT22;12385;51.412;5.540;2022-10-22T01:58:51;13.70;99.90
24262;DHT22;12385;51.412;5.540;2022-10-22T02:04:34;13.60;99.90
24262;DHT22;12385;51.412;5.540;2022-10-22T02:07:07;13.60;99.90
24262;DHT22;12385;51.412;5.540;2022-10-22T02:09:38;13.60;99.90
24262;DHT22;12385;51.412;5.540;2022-10-22T02:12:07;13.60;99.90
24262;DHT22;12385;51.412;5.540;2022-10-22T02:14:35;13.60;99.90
24262;DHT22;12385;51.412;5.540;2022-10-22T02:17:02;13.60;99.90
24262;DHT22;12385;51.412;5.540;2022-10-22T02:19:37;13.60;99.90
24262;DHT22;12385;51.412;5.540;2022-10-22T02:22:03;13.60;99.90
24262;DHT22;12385;51.412;5.540;2022-10-22T02:24:30;13.60;99.90
24262;DHT22;12385;51.412;5.540;2022-10-22T02:29:40;13.50;99.90
24262;DHT22;12385;51.412;5.540;2022-10-22T02:32:13;13.50;99.90
24262;DHT22;12385;51.412;5.540;2022-10-22T02:34:40;13.50;99.90
24262;DHT22;12385;51.412;5.540;2022-10-22T02:37:07;13.50;99.90
24262;DHT22;12385;51.412;5.540;2022-10-22T02:39:35;13.50;99.90
24262;DHT22;12385;51.412;5.540;2022-10-22T02:42:01;13.50;99.90
24262;DHT22;12385;51.412;5.540;2022-10-22T02:44:27;13.50;99.90
24262;DHT22;12385;51.412;5.540;2022-10-22T02:46:53;13.50;99.90
24262;DHT22;12385;51.412;5.540;2022-10-22T02:49:18;13.50;99.90
24262;DHT22;12385;51.412;5.540;2022-10-22T02:51:44;13.40;99.90
24262;DHT22;12385;51.412;5.540;2022-10-22T02:54:10;13.40;99.90
24262;DHT22;12385;51.412;5.540;2022-10-22T02:56:36;13.40;99.90
24262;DHT22;12385;51.412;5.540;2022-10-22T02:59:01;13.40;99.90
24262;DHT22;12385;51.412;5.540;2022-10-22T03:01:27;13.30;99.90
24262;DHT22;12385;51.412;5.540;2022-10-22T03:03:52;13.30;99.90
24262;DHT22;12385;51.412;5.540;2022-10-22T03:06:20;13.30;99.90
24262;DHT22;12385;51.412;5.540;2022-10-22T03:08:46;13.30;99.90
24262;DHT22;12385;51.412;5.540;2022-10-22T03:11:11;13.20;99.90
24262;DHT22;12385;51.412;5.540;2022-10-22T03:13:39;13.30;99.90
24262;DHT22;12385;51.412;5.540;2022-10-22T03:16:05;13.30;99.90
24262;DHT22;12385;51.412;5.540;2022-10-22T03:18:31;13.20;99.90
24262;DHT22;12385;51.412;5.540;2022-10-22T03:21:24;13.20;99.90
24262;DHT22;12385;51.412;5.540;2022-10-22T03:23:53;13.20;99.90
24262;DHT22;12385;51.412;5.540;2022-10-22T03:26:18;13.20;99.90
24262;DHT22;12385;51.412;5.540;2022-10-22T03:28:46;13.20;99.90
24262;DHT22;12385;51.412;5.540;2022-10-22T03:31:13;13.20;99.90
24262;DHT22;12385;51.412;5.540;2022-10-22T03:33:39;13.20;99.90
24262;DHT22;12385;51.412;5.540;2022-10-22T03:36:05;13.20;99.90
24262;DHT22;12385;51.412;5.540;2022-10-22T03:38:34;13.20;99.90
24262;DHT22;12385;51.412;5.540;2022-10-22T03:41:00;13.20;99.90
24262;DHT22;12385;51.412;5.540;2022-10-22T03:43:26;13.20;99.90
24262;DHT22;12385;51.412;5.540;2022-10-22T03:45:52;13.20;99.90
24262;DHT22;12385;51.412;5.540;2022-10-22T03:48:17;13.20;99.90
24262;DHT22;12385;51.412;5.540;2022-10-22T03:50:43;13.10;99.90
24262;DHT22;12385;51.412;5.540;2022-10-22T03:53:08;13.10;99.90
24262;DHT22;12385;51.412;5.540;2022-10-22T03:55:35;13.20;99.90
24262;DHT22;12385;51.412;5.540;2022-10-22T03:58:03;13.10;99.90
24262;DHT22;12385;51.412;5.540;2022-10-22T04:00:28;13.10;99.90
24262;DHT22;12385;51.412;5.540;2022-10-22T04:02:54;13.10;99.90
24262;DHT22;12385;51.412;5.540;2022-10-22T04:05:20;13.10;99.90
24262;DHT22;12385;51.412;5.540;2022-10-22T04:07:46;13.10;99.90
24262;DHT22;12385;51.412;5.540;2022-10-22T04:10:11;13.10;99.90
24262;DHT22;12385;51.412;5.540;2022-10-22T04:12:37;13.00;99.90
24262;DHT22;12385;51.412;5.540;2022-10-22T04:15:03;13.00;99.90
24262;DHT22;12385;51.412;5.540;2022-10-22T04:17:34;13.00;99.90
24262;DHT22;12385;51.412;5.540;2022-10-22T04:20:00;13.00;99.90
24262;DHT22;12385;51.412;5.540;2022-10-22T04:22:26;13.00;99.90
24262;DHT22;12385;51.412;5.540;2022-10-22T04:24:51;13.00;99.90
24262;DHT22;12385;51.412;5.540;2022-10-22T04:27:17;13.00;99.90
24262;DHT22;12385;51.412;5.540;2022-10-22T04:29:43;13.10;99.90
24262;DHT22;12385;51.412;5.540;2022-10-22T04:32:08;13.10;99.90
24262;DHT22;12385;51.412;5.540;2022-10-22T04:34:34;13.10;99.90
24262;DHT22;12385;51.412;5.540;2022-10-22T04:36:59;13.10;99.90
24262;DHT22;12385;51.412;5.540;2022-10-22T04:39:25;13.20;99.90
24262;DHT22;12385;51.412;5.540;2022-10-22T04:41:50;13.20;99.90
24262;DHT22;12385;51.412;5.540;2022-10-22T04:44:16;13.20;99.90
24262;DHT22;12385;51.412;5.540;2022-10-22T04:46:42;13.20;99.90
24262;DHT22;12385;51.412;5.540;2022-10-22T04:49:07;13.30;99.90
24262;DHT22;12385;51.412;5.540;2022-10-22T04:51:33;13.30;99.90
24262;DHT22;12385;51.412;5.540;2022-10-22T04:53:58;13.30;99.90
24262;DHT22;12385;51.412;5.540;2022-10-22T04:56:27;13.40;99.90
24262;DHT22;12385;51.412;5.540;2022-10-22T04:59:04;13.40;99.90
24262;DHT22;12385;51.412;5.540;2022-10-22T05:01:35;13.40;99.90
24262;DHT22;12385;51.412;5.540;2022-10-22T05:04:03;13.40;99.90
24262;DHT22;12385;51.412;5.540;2022-10-22T05:06:31;13.40;99.90
24262;DHT22;12385;51.412;5.540;2022-10-22T05:09:00;13.40;99.90
24262;DHT22;12385;51.412;5.540;2022-10-22T05:11:29;13.50;99.90
24262;DHT22;12385;51.412;5.540;2022-10-22T05:13:57;13.40;99.90
24262;DHT22;12385;51.412;5.540;2022-10-22T05:16:23;13.40;99.90
24262;DHT22;12385;51.412;5.540;2022-10-22T05:18:49;13.50;99.90
24262;DHT22;12385;51.412;5.540;2022-10-22T06:12:58;13.30;99.90
24262;DHT22;12385;51.412;5.540;2022-10-22T06:15:30;13.20;99.90
24262;DHT22;12385;51.412;5.540;2022-10-22T06:17:55;13.20;99.90
24262;DHT22;12385;51.412;5.540;2022-10-22T06:20:21;13.20;99.90
24262;DHT22;12385;51.412;5.540;2022-10-22T06:23:02;13.20;99.90
24262;DHT22;12385;51.412;5.540;2022-10-22T06:25:27;13.20;99.90
24262;DHT22;12385;51.412;5.540;2022-10-22T06:27:53;13.20;99.90
24262;DHT22;12385;51.412;5.540;2022-10-22T06:30:18;13.20;99.90
24262;DHT22;12385;51.412;5.540;2022-10-22T06:32:44;13.20;99.90
24262;DHT22;12385;51.412;5.540;2022-10-22T06:35:09;13.20;99.90
24262;DHT22;12385;51.412;5.540;2022-10-22T06:37:35;13.30;99.90
24262;DHT22;12385;51.412;5.540;2022-10-22T06:40:01;13.40;99.90
24262;DHT22;12385;51.412;5.540;2022-10-22T06:42:27;13.40;99.90
24262;DHT22;12385;51.412;5.540;2022-10-22T06:44:53;13.40;99.90
24262;DHT22;12385;51.412;5.540;2022-10-22T06:47:18;13.50;99.90
24262;DHT22;12385;51.412;5.540;2022-10-22T06:49:44;13.60;99.90
24262;DHT22;12385;51.412;5.540;2022-10-22T06:52:09;13.70;99.90
24262;DHT22;12385;51.412;5.540;2022-10-22T06:54:35;13.70;99.90
24262;DHT22;12385;51.412;5.540;2022-10-22T06:57:01;13.70;99.90
24262;DHT22;12385;51.412;5.540;2022-10-22T06:59:26;13.80;99.90
24262;DHT22;12385;51.412;5.540;2022-10-22T07:01:52;13.80;99.90
24262;DHT22;12385;51.412;5.540;2022-10-22T07:04:17;13.80;99.90
24262;DHT22;12385;51.412;5.540;2022-10-22T07:06:43;13.90;99.90
24262;DHT22;12385;51.412;5.540;2022-10-22T07:09:08;13.90;99.90
24262;DHT22;12385;51.412;5.540;2022-10-22T07:11:44;13.90;99.90
24262;DHT22;12385;51.412;5.540;2022-10-22T07:14:12;14.00;99.90
24262;DHT22;12385;51.412;5.540;2022-10-22T07:16:38;14.00;99.90
24262;DHT22;12385;51.412;5.540;2022-10-22T07:19:07;14.00;99.90
24262;DHT22;12385;51.412;5.540;2022-10-22T07:21:33;14.10;99.90
24262;DHT22;12385;51.412;5.540;2022-10-22T07:23:58;14.10;99.90
24262;DHT22;12385;51.412;5.540;2022-10-22T07:26:24;14.20;99.90
24262;DHT22;12385;51.412;5.540;2022-10-22T07:28:53;14.20;99.90
24262;DHT22;12385;51.412;5.540;2022-10-22T07:31:19;14.30;99.90
24262;DHT22;12385;51.412;5.540;2022-10-22T07:33:44;14.30;99.90
24262;DHT22;12385;51.412;5.540;2022-10-22T07:36:12;14.40;99.90
24262;DHT22;12385;51.412;5.540;2022-10-22T07:38:45;14.40;99.90
24262;DHT22;12385;51.412;5.540;2022-10-22T07:41:14;14.50;99.90
24262;DHT22;12385;51.412;5.540;2022-10-22T07:43:40;14.50;99.90
24262;DHT22;12385;51.412;5.540;2022-10-22T07:46:06;14.60;99.90
24262;DHT22;12385;51.412;5.540;2022-10-22T07:48:37;14.60;99.90
24262;DHT22;12385;51.412;5.540;2022-10-22T07:51:03;14.60;99.90
24262;DHT22;12385;51.412;5.540;2022-10-22T07:53:30;14.70;99.90
24262;DHT22;12385;51.412;5.540;2022-10-22T07:55:57;14.70;99.90
24262;DHT22;12385;51.412;5.540;2022-10-22T07:58:23;14.70;99.90
24262;DHT22;12385;51.412;5.540;2022-10-22T08:00:49;14.60;99.90
24262;DHT22;12385;51.412;5.540;2022-10-22T08:03:17;14.60;99.90
24262;DHT22;12385;51.412;5.540;2022-10-22T08:05:43;14.60;99.90
24262;DHT22;12385;51.412;5.540;2022-10-22T08:08:10;14.60;99.90
24262;DHT22;12385;51.412;5.540;2022-10-22T08:10:37;14.70;99.90
24262;DHT22;12385;51.412;5.540;2022-10-22T08:13:03;14.70;99.90
24262;DHT22;12385;51.412;5.540;2022-10-22T08:15:28;14.80;99.90
24262;DHT22;12385;51.412;5.540;2022-10-22T08:18:06;14.80;99.90
24262;DHT22;12385;51.412;5.540;2022-10-22T08:20:32;14.80;99.90
24262;DHT22;12385;51.412;5.540;2022-10-22T08:22:58;14.80;99.90
24262;DHT22;12385;51.412;5.540;2022-10-22T08:25:25;14.80;99.90
24262;DHT22;12385;51.412;5.540;2022-10-22T08:27:51;14.90;99.90
24262;DHT22;12385;51.412;5.540;2022-10-22T08:30:17;14.90;99.90
24262;DHT22;12385;51.412;5.540;2022-10-22T08:32:43;15.00;99.90
24262;DHT22;12385;51.412;5.540;2022-10-22T08:35:09;15.10;99.90
24262;DHT22;12385;51.412;5.540;2022-10-22T08:37:35;15.10;99.90
24262;DHT22;12385;51.412;5.540;2022-10-22T08:40:03;15.10;99.90
24262;DHT22;12385;51.412;5.540;2022-10-22T08:42:58;15.20;99.90
24262;DHT22;12385;51.412;5.540;2022-10-22T08:45:34;15.30;99.90
24262;DHT22;12385;51.412;5.540;2022-10-22T08:48:19;15.40;99.90
24262;DHT22;12385;51.412;5.540;2022-10-22T08:50:53;15.40;99.90
24262;DHT22;12385;51.412;5.540;2022-10-22T08:53:27;15.40;99.90
24262;DHT22;12385;51.412;5.540;2022-10-22T08:55:56;15.40;99.90
24262;DHT22;12385;51.412;5.540;2022-10-22T08:58:41;15.50;99.90
24262;DHT22;12385;51.412;5.540;2022-10-22T09:01:26;15.50;99.90
24262;DHT22;12385;51.412;5.540;2022-10-22T09:04:26;15.60;99.90
24262;DHT22;12385;51.412;5.540;2022-10-22T09:06:54;15.60;99.90
24262;DHT22;12385;51.412;5.540;2022-10-22T09:09:26;15.60;99.90
24262;DHT22;12385;51.412;5.540;2022-10-22T09:12:26;15.80;99.90
24262;DHT22;12385;51.412;5.540;2022-10-22T09:14:53;15.90;99.90
24262;DHT22;12385;51.412;5.540;2022-10-22T09:20:14;16.00;99.90
24262;DHT22;12385;51.412;5.540;2022-10-22T09:25:30;16.20;99.90
24262;DHT22;12385;51.412;5.540;2022-10-22T09:27:56;16.20;99.90
24262;DHT22;12385;51.412;5.540;2022-10-22T09:30:30;16.30;99.90
24262;DHT22;12385;51.412;5.540;2022-10-22T09:35:34;16.30;99.90
24262;DHT22;12385;51.412;5.540;2022-10-22T09:38:07;16.40;99.90
24262;DHT22;12385;51.412;5.540;2022-10-22T09:40:47;16.40;99.90
24262;DHT22;12385;51.412;5.540;2022-10-22T09:43:14;16.50;99.90
24262;DHT22;12385;51.412;5.540;2022-10-22T09:45:43;16.50;99.90
24262;DHT22;12385;51.412;5.540;2022-10-22T09:48:19;16.50;99.90
24262;DHT22;12385;51.412;5.540;2022-10-22T09:50:49;16.70;99.90
24262;DHT22;12385;51.412;5.540;2022-10-22T09:53:22;16.70;99.90
24262;DHT22;12385;51.412;5.540;2022-10-22T09:55:56;16.80;99.90
24262;DHT22;12385;51.412;5.540;2022-10-22T09:58:25;16.80;99.90
24262;DHT22;12385;51.412;5.540;2022-10-22T10:01:01;16.90;99.90
24262;DHT22;12385;51.412;5.540;2022-10-22T10:03:29;16.90;99.90
24262;DHT22;12385;51.412;5.540;2022-10-22T10:05:58;17.00;99.90
24262;DHT22;12385;51.412;5.540;2022-10-22T10:08:25;17.00;99.90
24262;DHT22;12385;51.412;5.540;2022-10-22T10:11:18;17.10;99.90
24262;DHT22;12385;51.412;5.540;2022-10-22T10:14:53;17.10;99.90
24262;DHT22;12385;51.412;5.540;2022-10-22T10:17:07;17.20;99.90
24262;DHT22;12385;51.412;5.540;2022-10-22T10:20:15;17.10;99.90
24262;DHT22;12385;51.412;5.540;2022-10-22T10:25:57;17.30;99.90
24262;DHT22;12385;51.412;5.540;2022-10-22T10:40:22;17.30;99.90
24262;DHT22;12385;51.412;5.540;2022-10-22T10:48:47;17.30;99.90
24262;DHT22;12385;51.412;5.540;2022-10-22T10:51:44;17.40;99.90
24262;DHT22;12385;51.412;5.540;2022-10-22T10:54:22;17.40;99.90
24262;DHT22;12385;51.412;5.540;2022-10-22T10:57:11;17.40;99.90
24262;DHT22;12385;51.412;5.540;2022-10-22T11:10:34;17.60;99.90
24262;DHT22;12385;51.412;5.540;2022-10-22T11:13:21;17.70;99.90
24262;DHT22;12385;51.412;5.540;2022-10-22T11:16:02;17.80;99.90
24262;DHT22;12385;51.412;5.540;2022-10-22T11:18:37;17.90;99.90
24262;DHT22;12385;51.412;5.540;2022-10-22T11:26:54;18.30;99.90
24262;DHT22;12385;51.412;5.540;2022-10-22T11:29:26;18.30;99.90
24262;DHT22;12385;51.412;5.540;2022-10-22T11:31:53;18.30;99.90
24262;DHT22;12385;51.412;5.540;2022-10-22T11:34:33;18.30;99.90
24262;DHT22;12385;51.412;5.540;2022-10-22T11:37:03;18.40;99.90
24262;DHT22;12385;51.412;5.540;2022-10-22T11:39:39;18.30;99.90
24262;DHT22;12385;51.412;5.540;2022-10-22T11:42:18;18.30;99.90
24262;DHT22;12385;51.412;5.540;2022-10-22T11:47:58;18.20;99.90
24262;DHT22;12385;51.412;5.540;2022-10-22T11:53:25;18.20;99.90
24262;DHT22;12385;51.412;5.540;2022-10-22T11:58:40;18.50;99.90
24262;DHT22;12385;51.412;5.540;2022-10-22T12:01:21;18.70;99.90
24262;DHT22;12385;51.412;5.540;2022-10-22T12:09:23;19.00;99.90
24262;DHT22;12385;51.412;5.540;2022-10-22T12:11:50;19.00;99.90
24262;DHT22;12385;51.412;5.540;2022-10-22T12:14:25;19.10;99.90
24262;DHT22;12385;51.412;5.540;2022-10-22T12:17:13;19.10;99.90
24262;DHT22;12385;51.412;5.540;2022-10-22T12:19:59;19.10;99.90
24262;DHT22;12385;51.412;5.540;2022-10-22T12:22:33;19.00;99.90
24262;DHT22;12385;51.412;5.540;2022-10-22T12:25:15;18.90;99.90
24262;DHT22;12385;51.412;5.540;2022-10-22T12:27:41;18.80;99.90
24262;DHT22;12385;51.412;5.540;2022-10-22T12:30:28;18.70;99.90
24262;DHT22;12385;51.412;5.540;2022-10-22T12:32:56;18.70;99.90
24262;DHT22;12385;51.412;5.540;2022-10-22T12:35:28;18.60;99.90
24262;DHT22;12385;51.412;5.540;2022-10-22T12:37:56;18.50;99.90
24262;DHT22;12385;51.412;5.540;2022-10-22T12:40:24;18.40;99.90
24262;DHT22;12385;51.412;5.540;2022-10-22T12:42:56;18.40;99.90
24262;DHT22;12385;51.412;5.540;2022-10-22T12:45:25;18.40;99.90
24262;DHT22;12385;51.412;5.540;2022-10-22T12:48:24;18.50;99.90
24262;DHT22;12385;51.412;5.540;2022-10-22T12:50:54;18.60;99.90
24262;DHT22;12385;51.412;5.540;2022-10-22T12:53:26;18.80;99.90
24262;DHT22;12385;51.412;5.540;2022-10-22T12:55:55;19.00;99.90
24262;DHT22;12385;51.412;5.540;2022-10-22T12:58:37;19.10;99.90
24262;DHT22;12385;51.412;5.540;2022-10-22T13:01:03;19.20;99.90
24262;DHT22;12385;51.412;5.540;2022-10-22T13:03:33;19.20;99.90
24262;DHT22;12385;51.412;5.540;2022-10-22T13:06:25;19.30;99.90
24262;DHT22;12385;51.412;5.540;2022-10-22T13:11:48;19.30;99.90
24262;DHT22;12385;51.412;5.540;2022-10-22T13:17:17;19.00;99.90
24262;DHT22;12385;51.412;5.540;2022-10-22T13:22:32;18.70;99.90
24262;DHT22;12385;51.412;5.540;2022-10-22T13:27:30;18.70;99.90
24262;DHT22;12385;51.412;5.540;2022-10-22T13:30:00;18.60;99.90
24262;DHT22;12385;51.412;5.540;2022-10-22T13:32:32;18.60;99.90
24262;DHT22;12385;51.412;5.540;2022-10-22T13:35:00;18.50;99.90
24262;DHT22;12385;51.412;5.540;2022-10-22T13:37:29;18.60;99.90
24262;DHT22;12385;51.412;5.540;2022-10-22T13:39:55;19.00;99.90
24262;DHT22;12385;51.412;5.540;2022-10-22T13:42:21;19.50;99.90
24262;DHT22;12385;51.412;5.540;2022-10-22T13:44:52;20.10;99.90
24262;DHT22;12385;51.412;5.540;2022-10-22T13:47:27;20.60;99.90
24262;DHT22;12385;51.412;5.540;2022-10-22T13:49:56;21.00;99.90
24262;DHT22;12385;51.412;5.540;2022-10-22T13:52:56;21.40;99.90
24262;DHT22;12385;51.412;5.540;2022-10-22T13:55:27;21.50;99.90
24262;DHT22;12385;51.412;5.540;2022-10-22T13:58:05;21.30;99.90
24262;DHT22;12385;51.412;5.540;2022-10-22T14:00:34;21.30;99.90
24262;DHT22;12385;51.412;5.540;2022-10-22T14:03:01;21.70;99.90
24262;DHT22;12385;51.412;5.540;2022-10-22T14:05:29;22.20;99.90
24262;DHT22;12385;51.412;5.540;2022-10-22T14:07:58;22.50;99.90
24262;DHT22;12385;51.412;5.540;2022-10-22T14:10:24;22.60;99.90
24262;DHT22;12385;51.412;5.540;2022-10-22T14:12:51;22.70;99.90
24262;DHT22;12385;51.412;5.540;2022-10-22T14:15:19;22.80;99.90
24262;DHT22;12385;51.412;5.540;2022-10-22T14:17:47;22.60;99.90
24262;DHT22;12385;51.412;5.540;2022-10-22T14:20:16;22.30;99.90
24262;DHT22;12385;51.412;5.540;2022-10-22T14:22:47;21.90;99.90
24262;DHT22;12385;51.412;5.540;2022-10-22T14:25:21;21.50;99.90
24262;DHT22;12385;51.412;5.540;2022-10-22T14:27:47;21.10;99.90
24262;DHT22;12385;51.412;5.540;2022-10-22T14:30:21;20.80;99.90
24262;DHT22;12385;51.412;5.540;2022-10-22T14:32:49;20.80;99.90
24262;DHT22;12385;51.412;5.540;2022-10-22T14:35:17;21.00;99.90
24262;DHT22;12385;51.412;5.540;2022-10-22T14:37:49;21.20;99.90
24262;DHT22;12385;51.412;5.540;2022-10-22T14:40:17;21.20;99.90
24262;DHT22;12385;51.412;5.540;2022-10-22T14:42:45;21.40;99.90
24262;DHT22;12385;51.412;5.540;2022-10-22T14:45:21;21.50;99.90
24262;DHT22;12385;51.412;5.540;2022-10-22T14:47:48;21.80;99.90
24262;DHT22;12385;51.412;5.540;2022-10-22T14:50:15;22.10;99.90
24262;DHT22;12385;51.412;5.540;2022-10-22T14:52:41;22.60;99.90
24262;DHT22;12385;51.412;5.540;2022-10-22T14:55:10;22.70;99.90
24262;DHT22;12385;51.412;5.540;2022-10-22T14:57:36;22.70;99.90
24262;DHT22;12385;51.412;5.540;2022-10-22T15:00:05;22.80;99.90
24262;DHT22;12385;51.412;5.540;2022-10-22T15:02:35;23.00;99.90
24262;DHT22;12385;51.412;5.540;2022-10-22T15:05:01;23.20;99.90
24262;DHT22;12385;51.412;5.540;2022-10-22T15:07:27;23.10;99.90
24262;DHT22;12385;51.412;5.540;2022-10-22T15:09:56;22.90;99.90
24262;DHT22;12385;51.412;5.540;2022-10-22T15:12:22;22.60;99.90
24262;DHT22;12385;51.412;5.540;2022-10-22T15:14:47;22.30;99.90
24262;DHT22;12385;51.412;5.540;2022-10-22T15:17:17;22.00;99.90
24262;DHT22;12385;51.412;5.540;2022-10-22T15:19:43;21.70;99.90
24262;DHT22;12385;51.412;5.540;2022-10-22T15:22:10;21.40;99.90
24262;DHT22;12385;51.412;5.540;2022-10-22T15:24:36;21.10;99.90
24262;DHT22;12385;51.412;5.540;2022-10-22T15:27:01;20.90;99.90
24262;DHT22;12385;51.412;5.540;2022-10-22T15:29:31;20.70;99.90
24262;DHT22;12385;51.412;5.540;2022-10-22T15:31:58;20.50;99.90
24262;DHT22;12385;51.412;5.540;2022-10-22T15:34:27;20.40;99.90
24262;DHT22;12385;51.412;5.540;2022-10-22T15:36:55;20.20;99.90
24262;DHT22;12385;51.412;5.540;2022-10-22T15:39:23;20.20;99.90
24262;DHT22;12385;51.412;5.540;2022-10-22T15:41:49;20.10;99.90
24262;DHT22;12385;51.412;5.540;2022-10-22T15:44:18;20.00;99.90
24262;DHT22;12385;51.412;5.540;2022-10-22T15:46:44;19.90;99.90
24262;DHT22;12385;51.412;5.540;2022-10-22T15:49:10;19.80;99.90
24262;DHT22;12385;51.412;5.540;2022-10-22T15:51:36;19.60;99.90
24262;DHT22;12385;51.412;5.540;2022-10-22T15:54:18;19.60;99.90
24262;DHT22;12385;51.412;5.540;2022-10-22T15:56:44;19.50;99.90
24262;DHT22;12385;51.412;5.540;2022-10-22T15:59:11;19.30;99.90
24262;DHT22;12385;51.412;5.540;2022-10-22T16:01:37;19.20;99.90
24262;DHT22;12385;51.412;5.540;2022-10-22T16:04:04;19.20;99.90
24262;DHT22;12385;51.412;5.540;2022-10-22T16:06:35;19.10;99.90
24262;DHT22;12385;51.412;5.540;2022-10-22T16:09:03;19.00;99.90
24262;DHT22;12385;51.412;5.540;2022-10-22T16:11:30;18.90;99.90
24262;DHT22;12385;51.412;5.540;2022-10-22T16:13:56;18.80;99.90
24262;DHT22;12385;51.412;5.540;2022-10-22T16:16:28;18.70;99.90
24262;DHT22;12385;51.412;5.540;2022-10-22T16:18:55;18.60;99.90
24262;DHT22;12385;51.412;5.540;2022-10-22T16:21:21;18.50;99.90
24262;DHT22;12385;51.412;5.540;2022-10-22T16:23:47;18.40;99.90
24262;DHT22;12385;51.412;5.540;2022-10-22T16:26:14;18.30;99.90
24262;DHT22;12385;51.412;5.540;2022-10-22T16:28:41;18.20;99.90
24262;DHT22;12385;51.412;5.540;2022-10-22T16:31:09;18.10;99.90
24262;DHT22;12385;51.412;5.540;2022-10-22T16:33:37;18.00;99.90
24262;DHT22;12385;51.412;5.540;2022-10-22T16:36:14;17.80;99.90
24262;DHT22;12385;51.412;5.540;2022-10-22T16:38:42;17.70;99.90
24262;DHT22;12385;51.412;5.540;2022-10-22T16:41:12;17.60;99.90
24262;DHT22;12385;51.412;5.540;2022-10-22T16:43:41;17.60;99.90
24262;DHT22;12385;51.412;5.540;2022-10-22T16:46:07;17.50;99.90
24262;DHT22;12385;51.412;5.540;2022-10-22T16:48:33;17.50;99.90
24262;DHT22;12385;51.412;5.540;2022-10-22T16:51:04;17.40;99.90
24262;DHT22;12385;51.412;5.540;2022-10-22T16:53:30;17.40;99.90
24262;DHT22;12385;51.412;5.540;2022-10-22T16:55:56;17.30;99.90
24262;DHT22;12385;51.412;5.540;2022-10-22T16:58:21;17.30;99.90
24262;DHT22;12385;51.412;5.540;2022-10-22T17:00:47;17.20;99.90
24262;DHT22;12385;51.412;5.540;2022-10-22T17:03:13;17.10;99.90
24262;DHT22;12385;51.412;5.540;2022-10-22T17:05:39;17.00;99.90
24262;DHT22;12385;51.412;5.540;2022-10-22T17:08:05;17.00;99.90
24262;DHT22;12385;51.412;5.540;2022-10-22T17:10:30;17.00;99.90
24262;DHT22;12385;51.412;5.540;2022-10-22T17:12:56;16.90;99.90
24262;DHT22;12385;51.412;5.540;2022-10-22T17:15:21;16.80;99.90
24262;DHT22;12385;51.412;5.540;2022-10-22T17:17:47;16.80;99.90
24262;DHT22;12385;51.412;5.540;2022-10-22T17:20:17;16.80;99.90
24262;DHT22;12385;51.412;5.540;2022-10-22T17:22:43;16.70;99.90
24262;DHT22;12385;51.412;5.540;2022-10-22T17:25:14;16.60;99.90
24262;DHT22;12385;51.412;5.540;2022-10-22T17:27:41;16.60;99.90
24262;DHT22;12385;51.412;5.540;2022-10-22T17:30:11;16.60;99.90
24262;DHT22;12385;51.412;5.540;2022-10-22T17:32:38;16.60;99.90
24262;DHT22;12385;51.412;5.540;2022-10-22T17:35:06;16.50;99.90
24262;DHT22;12385;51.412;5.540;2022-10-22T17:37:33;16.50;99.90
24262;DHT22;12385;51.412;5.540;2022-10-22T17:39:58;16.40;99.90
24262;DHT22;12385;51.412;5.540;2022-10-22T17:42:26;16.40;99.90
24262;DHT22;12385;51.412;5.540;2022-10-22T17:44:53;16.30;99.90
24262;DHT22;12385;51.412;5.540;2022-10-22T17:47:18;16.30;99.90
24262;DHT22;12385;51.412;5.540;2022-10-22T17:49:45;16.20;99.90
24262;DHT22;12385;51.412;5.540;2022-10-22T17:52:14;16.20;99.90
24262;DHT22;12385;51.412;5.540;2022-10-22T17:54:40;16.10;99.90
24262;DHT22;12385;51.412;5.540;2022-10-22T17:57:08;16.10;99.90
24262;DHT22;12385;51.412;5.540;2022-10-22T17:59:34;16.00;99.90
24262;DHT22;12385;51.412;5.540;2022-10-22T18:02:01;16.00;99.90
24262;DHT22;12385;51.412;5.540;2022-10-22T18:04:29;16.00;99.90
24262;DHT22;12385;51.412;5.540;2022-10-22T18:06:56;16.00;99.90
24262;DHT22;12385;51.412;5.540;2022-10-22T18:09:23;15.90;99.90